createdAt,value
2023-05-07T00:01:43.968Z,100.00
2023-05-07T00:04:12.290Z,100.00
2023-05-07T00:06:40.872Z,100.00
2023-05-07T00:09:09.280Z,100.00
2023-05-07T00:11:37.499Z,100.00
2023-05-07T00:14:05.788Z,100.00
2023-05-07T00:16:33.945Z,100.00
2023-05-07T00:19:03.564Z,100.00
2023-05-07T00:21:31.677Z,100.00
2023-05-07T00:23:59.810Z,100.00
2023-05-07T00:26:27.937Z,100.00
2023-05-07T00:28:56.054Z,100.00
2023-05-07T00:31:24.250Z,100.00
2023-05-07T00:33:52.384Z,100.00
2023-05-07T00:36:21.965Z,100.00
2023-05-07T00:38:50.144Z,100.00
2023-05-07T00:41:18.277Z,100.00
2023-05-07T00:43:46.936Z,100.00
2023-05-07T00:46:16.987Z,100.00
2023-05-07T00:48:45.408Z,100.00
2023-05-07T00:51:13.873Z,100.00
2023-05-07T00:53:43.676Z,100.00
2023-05-07T00:56:12.427Z,100.00
2023-05-07T00:58:40.956Z,100.00
2023-05-07T01:01:09.271Z,100.00
2023-05-07T01:03:37.522Z,100.00
2023-05-07T01:06:09.000Z,100.00
2023-05-07T01:08:40.840Z,100.00
2023-05-07T01:11:11.215Z,100.00
2023-05-07T01:13:40.723Z,100.00
2023-05-07T01:16:10.884Z,100.00
2023-05-07T01:18:39.182Z,100.00
2023-05-07T01:21:07.874Z,100.00
2023-05-07T01:23:38.251Z,100.00
2023-05-07T01:26:06.502Z,100.00
2023-05-07T01:28:34.623Z,100.00
2023-05-07T01:31:05.485Z,100.00
2023-05-07T01:33:36.831Z,100.00
2023-05-07T01:36:07.790Z,100.00
2023-05-07T01:38:38.613Z,100.00
2023-05-07T01:41:07.199Z,100.00
2023-05-07T01:43:35.849Z,100.00
2023-05-07T01:46:06.095Z,100.00
2023-05-07T01:48:35.172Z,100.00
2023-05-07T01:51:04.069Z,100.00
2023-05-07T01:53:39.777Z,100.00
2023-05-07T01:56:08.697Z,100.00
2023-05-07T01:58:36.881Z,100.00
2023-05-07T02:01:05.086Z,100.00
2023-05-07T02:03:33.328Z,100.00
2023-05-07T02:06:01.514Z,100.00
2023-05-07T02:08:29.705Z,100.00
2023-05-07T02:10:59.246Z,100.00
2023-05-07T02:13:29.386Z,100.00
2023-05-07T02:15:57.521Z,100.00
2023-05-07T02:18:25.714Z,100.00
2023-05-07T02:20:53.880Z,100.00
2023-05-07T02:23:22.038Z,100.00
2023-05-07T02:25:50.219Z,100.00
2023-05-07T02:28:19.794Z,100.00
2023-05-07T02:30:47.945Z,100.00
2023-05-07T02:33:16.120Z,100.00
2023-05-07T02:35:44.261Z,100.00
2023-05-07T02:38:12.496Z,100.00
2023-05-07T02:40:41.226Z,100.00
2023-05-07T02:43:09.582Z,100.00
2023-05-07T02:45:39.681Z,100.00
2023-05-07T02:48:08.315Z,100.00
2023-05-07T02:50:36.588Z,100.00
2023-05-07T02:53:04.746Z,100.00
2023-05-07T02:55:32.934Z,100.00
2023-05-07T02:58:01.093Z,100.00
2023-05-07T03:00:29.281Z,100.00
2023-05-07T03:02:58.867Z,100.00
2023-05-07T03:05:27.087Z,100.00
2023-05-07T03:07:55.231Z,100.00
2023-05-07T03:10:23.370Z,100.00
2023-05-07T03:12:51.551Z,100.00
2023-05-07T03:15:20.075Z,100.00
2023-05-07T03:17:48.242Z,100.00
2023-05-07T03:20:18.201Z,100.00
2023-05-07T03:22:46.373Z,100.00
2023-05-07T03:25:15.235Z,100.00
2023-05-07T03:27:44.058Z,100.00
2023-05-07T03:30:13.804Z,100.00
2023-05-07T03:32:42.120Z,100.00
2023-05-07T03:35:10.978Z,100.00
2023-05-07T03:37:40.931Z,100.00
2023-05-07T03:40:11.771Z,100.00
2023-05-07T03:42:40.349Z,100.00
2023-05-07T03:45:09.970Z,100.00
2023-05-07T03:47:38.170Z,100.00
2023-05-07T03:50:07.145Z,100.00
2023-05-07T03:52:35.340Z,100.00
2023-05-07T03:55:05.126Z,100.00
2023-05-07T03:57:33.255Z,100.00
2023-05-07T04:00:01.431Z,100.00
2023-05-07T04:02:29.626Z,100.00
2023-05-07T04:04:58.220Z,100.00
2023-05-07T04:07:26.403Z,100.00
2023-05-07T04:09:54.513Z,100.00
2023-05-07T04:12:24.068Z,100.00
2023-05-07T04:14:52.207Z,100.00
2023-05-07T04:17:20.320Z,100.00
2023-05-07T04:19:48.421Z,100.00
2023-05-07T04:22:16.872Z,100.00
2023-05-07T04:24:45.020Z,100.00
2023-05-07T04:27:13.150Z,100.00
2023-05-07T04:29:43.476Z,100.00
2023-05-07T04:32:12.240Z,100.00
2023-05-07T04:34:40.494Z,100.00
2023-05-07T04:37:08.567Z,100.00
2023-05-07T04:39:37.413Z,100.00
2023-05-07T04:42:05.572Z,100.00
2023-05-07T04:44:33.866Z,100.00
2023-05-07T04:47:03.384Z,100.00
2023-05-07T04:49:31.496Z,100.00
2023-05-07T04:51:59.637Z,100.00
2023-05-07T04:54:27.813Z,100.00
2023-05-07T04:56:55.903Z,100.00
2023-05-07T04:59:24.134Z,100.00
2023-05-07T05:01:52.474Z,100.00
2023-05-07T05:04:22.158Z,100.00
2023-05-07T05:06:50.270Z,100.00
2023-05-07T05:09:18.625Z,100.00
2023-05-07T05:11:47.332Z,100.00
2023-05-07T05:14:15.528Z,100.00
2023-05-07T05:16:43.770Z,100.00
2023-05-07T05:19:12.049Z,100.00
2023-05-07T05:21:41.633Z,100.00
2023-05-07T05:24:10.041Z,100.00
2023-05-07T05:26:38.183Z,100.00
2023-05-07T05:29:06.897Z,100.00
2023-05-07T05:31:35.109Z,100.00
2023-05-07T05:34:04.892Z,100.00
2023-05-07T05:36:33.080Z,100.00
2023-05-07T05:39:02.637Z,100.00
2023-05-07T05:41:30.832Z,100.00
2023-05-07T05:43:58.955Z,100.00
2023-05-07T05:46:27.198Z,100.00
2023-05-07T05:48:55.420Z,100.00
2023-05-07T05:51:24.341Z,100.00
2023-05-07T05:53:52.514Z,100.00
2023-05-07T05:56:22.310Z,100.00
2023-05-07T05:58:50.723Z,100.00
2023-05-07T06:01:19.935Z,100.00
2023-05-07T06:03:48.181Z,100.00
2023-05-07T06:06:16.809Z,100.00
2023-05-07T06:08:44.940Z,100.00
2023-05-07T06:11:13.142Z,100.00
2023-05-07T06:13:42.949Z,100.00
2023-05-07T06:16:11.093Z,100.00
2023-05-07T06:18:39.275Z,100.00
2023-05-07T06:21:07.491Z,100.00
2023-05-07T06:23:36.209Z,100.00
2023-05-07T06:26:04.486Z,100.00
2023-05-07T06:28:36.913Z,100.00
2023-05-07T06:31:18.172Z,100.00
2023-05-07T06:33:47.152Z,100.00
2023-05-07T06:36:15.509Z,100.00
2023-05-07T06:38:43.899Z,100.00
2023-05-07T06:41:12.097Z,100.00
2023-05-07T06:43:40.567Z,100.00
2023-05-07T06:46:08.867Z,100.00
2023-05-07T06:48:38.469Z,100.00
2023-05-07T06:51:07.095Z,100.00
2023-05-07T06:53:35.944Z,100.00
2023-05-07T06:56:04.098Z,100.00
2023-05-07T06:58:32.636Z,100.00
2023-05-07T07:01:00.959Z,100.00
2023-05-07T07:03:29.389Z,100.00
2023-05-07T07:06:00.360Z,100.00
2023-05-07T07:08:28.638Z,100.00
2023-05-07T07:10:56.937Z,100.00
2023-05-07T07:13:25.144Z,100.00
2023-05-07T07:15:54.123Z,100.00
2023-05-07T07:18:22.637Z,100.00
2023-05-07T07:20:51.276Z,100.00
2023-05-07T07:23:20.960Z,100.00
2023-05-07T07:25:49.524Z,100.00
2023-05-07T07:28:20.298Z,100.00
2023-05-07T07:30:48.985Z,100.00
2023-05-07T07:33:17.482Z,100.00
2023-05-07T07:35:45.880Z,100.00
2023-05-07T07:38:14.082Z,100.00
2023-05-07T07:40:45.074Z,100.00
2023-05-07T07:43:13.273Z,100.00
2023-05-07T07:45:41.912Z,100.00
2023-05-07T07:48:10.254Z,100.00
2023-05-07T07:50:45.190Z,100.00
2023-05-07T07:53:14.265Z,100.00
2023-05-07T07:55:43.937Z,100.00
2023-05-07T07:58:12.331Z,100.00
2023-05-07T08:00:40.486Z,100.00
2023-05-07T08:03:11.348Z,99.79
2023-05-07T08:05:40.236Z,100.00
2023-05-07T08:08:08.372Z,100.00
2023-05-07T08:10:39.400Z,100.00
2023-05-07T08:13:09.393Z,99.02
2023-05-07T08:15:37.868Z,100.00
2023-05-07T08:18:06.229Z,73.26
2023-05-07T08:20:34.817Z,72.88
2023-05-07T08:23:02.979Z,73.22
2023-05-07T08:25:31.182Z,73.95
2023-05-07T08:27:59.475Z,73.38
2023-05-07T08:30:29.295Z,73.28
2023-05-07T08:32:57.460Z,74.11
2023-05-07T08:35:26.835Z,75.67
2023-05-07T08:37:55.214Z,73.54
2023-05-07T08:40:26.641Z,72.25
2023-05-07T08:42:55.259Z,70.18
2023-05-07T08:45:23.347Z,70.19
2023-05-07T08:47:57.091Z,70.88
2023-05-07T08:50:25.309Z,71.90
2023-05-07T08:52:53.735Z,69.79
2023-05-07T08:55:22.819Z,69.17
2023-05-07T08:57:51.149Z,69.33
2023-05-07T09:00:19.757Z,67.61
2023-05-07T09:02:48.350Z,69.73
2023-05-07T09:05:18.202Z,70.84
2023-05-07T09:07:47.000Z,69.37
2023-05-07T09:10:15.542Z,69.50
2023-05-07T09:12:43.775Z,69.32
2023-05-07T09:15:13.303Z,68.48
2023-05-07T09:17:42.404Z,69.53
2023-05-07T09:20:11.371Z,69.19
2023-05-07T09:22:41.424Z,69.70
2023-05-07T09:25:11.067Z,70.52
2023-05-07T09:27:39.810Z,68.64
2023-05-07T09:30:09.560Z,66.44
2023-05-07T09:32:40.247Z,66.34
2023-05-07T09:35:16.628Z,66.57
2023-05-07T09:37:46.337Z,66.32
2023-05-07T09:40:23.491Z,66.73
2023-05-07T09:42:52.001Z,64.00
2023-05-07T09:45:24.844Z,63.11
2023-05-07T09:47:57.078Z,62.34
2023-05-07T09:50:29.917Z,62.83
2023-05-07T09:52:59.914Z,63.45
2023-05-07T09:55:28.906Z,63.75
2023-05-07T09:57:57.845Z,61.19
2023-05-07T10:00:27.987Z,60.72
2023-05-07T10:02:59.843Z,61.03
2023-05-07T10:05:29.774Z,59.84
2023-05-07T10:08:00.940Z,61.08
2023-05-07T10:10:31.497Z,61.29
2023-05-07T10:13:00.003Z,60.71
2023-05-07T10:15:28.938Z,62.05
2023-05-07T10:17:58.008Z,61.38
2023-05-07T10:20:27.952Z,61.32
2023-05-07T10:23:00.888Z,60.98
2023-05-07T10:25:32.497Z,61.22
2023-05-07T10:28:05.701Z,62.21
2023-05-07T10:30:42.547Z,61.67
2023-05-07T10:33:14.201Z,60.26
2023-05-07T10:35:45.158Z,61.06
2023-05-07T10:38:15.191Z,61.88
2023-05-07T10:40:43.432Z,62.51
2023-05-07T10:43:11.747Z,61.80
2023-05-07T10:45:40.007Z,62.85
2023-05-07T10:48:25.013Z,62.98
2023-05-07T10:51:21.382Z,64.08
2023-05-07T10:53:51.056Z,60.96
2023-05-07T10:56:32.045Z,61.32
2023-05-07T10:59:35.143Z,59.59
2023-05-07T11:02:05.528Z,58.11
2023-05-07T11:04:36.240Z,57.98
2023-05-07T11:07:30.208Z,60.46
2023-05-07T11:10:07.569Z,56.57
2023-05-07T11:12:57.508Z,59.22
2023-05-07T11:15:37.790Z,61.42
2023-05-07T11:18:06.271Z,57.08
2023-05-07T11:20:52.445Z,54.64
2023-05-07T11:23:53.515Z,54.87
2023-05-07T11:26:24.210Z,54.99
2023-05-07T11:28:53.496Z,53.54
2023-05-07T11:31:27.317Z,54.42
2023-05-07T11:33:56.169Z,57.13
2023-05-07T11:36:28.047Z,55.59
2023-05-07T11:38:57.159Z,55.25
2023-05-07T11:41:36.238Z,55.17
2023-05-07T11:44:04.448Z,56.09
2023-05-07T11:46:32.787Z,57.50
2023-05-07T11:49:02.861Z,56.53
2023-05-07T11:51:31.180Z,56.55
2023-05-07T11:53:59.284Z,57.17
2023-05-07T11:56:28.817Z,57.65
2023-05-07T11:58:56.967Z,56.78
2023-05-07T12:01:25.137Z,56.95
2023-05-07T12:03:53.445Z,56.90
2023-05-07T12:06:21.729Z,56.45
2023-05-07T12:08:50.005Z,55.69
2023-05-07T12:11:19.722Z,55.45
2023-05-07T12:13:49.364Z,54.89
2023-05-07T12:16:18.207Z,54.95
2023-05-07T12:18:47.286Z,54.66
2023-05-07T12:21:16.031Z,55.64
2023-05-07T12:23:44.294Z,56.05
2023-05-07T12:26:12.533Z,55.99
2023-05-07T12:28:41.255Z,54.88
2023-05-07T12:31:11.633Z,58.03
2023-05-07T12:33:39.961Z,55.16
2023-05-07T12:36:09.843Z,55.60
2023-05-07T12:38:39.694Z,57.01
2023-05-07T12:41:09.370Z,56.87
2023-05-07T12:43:37.819Z,57.75
2023-05-07T12:46:07.549Z,57.27
2023-05-07T12:48:39.097Z,57.78
2023-05-07T12:51:08.786Z,58.36
2023-05-07T12:53:43.366Z,59.04
2023-05-07T12:56:11.764Z,60.42
2023-05-07T12:58:39.986Z,59.33
2023-05-07T13:01:11.169Z,59.73
2023-05-07T13:03:41.231Z,60.16
2023-05-07T13:06:13.286Z,60.81
2023-05-07T13:08:44.226Z,60.95
2023-05-07T13:11:13.112Z,61.12
2023-05-07T13:13:43.194Z,63.66
2023-05-07T13:16:12.936Z,67.57
2023-05-07T13:18:45.029Z,74.76
2023-05-07T13:21:14.410Z,70.59
2023-05-07T13:23:42.805Z,71.93
2023-05-07T13:26:24.994Z,75.38
2023-05-07T13:28:54.692Z,74.41
2023-05-07T13:31:23.248Z,81.79
2023-05-07T13:33:53.967Z,89.52
2023-05-07T13:36:22.271Z,98.31
2023-05-07T13:38:50.458Z,100.00
2023-05-07T13:41:18.635Z,100.00
2023-05-07T13:43:46.869Z,100.00
2023-05-07T13:46:15.063Z,100.00
2023-05-07T13:48:43.208Z,100.00
2023-05-07T13:51:12.832Z,100.00
2023-05-07T13:53:41.054Z,100.00
2023-05-07T13:56:09.290Z,100.00
2023-05-07T13:58:42.216Z,100.00
2023-05-07T14:01:13.499Z,100.00
2023-05-07T14:03:41.814Z,100.00
2023-05-07T14:06:10.220Z,100.00
2023-05-07T14:08:39.825Z,100.00
2023-05-07T14:11:08.173Z,100.00
2023-05-07T14:13:36.649Z,100.00
2023-05-07T14:16:07.600Z,100.00
2023-05-07T14:18:39.233Z,100.00
2023-05-07T14:21:08.670Z,100.00
2023-05-07T14:23:37.134Z,100.00
2023-05-07T14:26:06.966Z,100.00
2023-05-07T14:28:35.137Z,100.00
2023-05-07T14:31:03.533Z,100.00
2023-05-07T14:33:31.697Z,100.00
2023-05-07T14:36:04.029Z,100.00
2023-05-07T14:38:34.054Z,100.00
2023-05-07T14:41:02.496Z,100.00
2023-05-07T14:43:32.665Z,100.00
2023-05-07T14:46:01.359Z,100.00
2023-05-07T14:48:29.561Z,100.00
2023-05-07T14:50:58.250Z,100.00
2023-05-07T14:53:26.923Z,100.00
2023-05-07T14:55:55.766Z,100.00
2023-05-07T14:58:23.906Z,100.00
2023-05-07T15:00:53.698Z,100.00
2023-05-07T15:03:23.472Z,100.00
2023-05-07T15:05:52.972Z,100.00
2023-05-07T15:08:21.404Z,100.00
2023-05-07T15:10:53.028Z,100.00
2023-05-07T15:13:21.634Z,100.00
2023-05-07T15:15:50.905Z,100.00
2023-05-07T15:18:22.641Z,100.00
2023-05-07T15:20:51.836Z,100.00
2023-05-07T15:23:20.056Z,100.00
2023-05-07T15:25:50.295Z,100.00
2023-05-07T15:28:20.822Z,100.00
2023-05-07T15:30:49.133Z,100.00
2023-05-07T15:33:17.262Z,100.00
2023-05-07T15:35:46.865Z,100.00
2023-05-07T15:38:15.195Z,100.00
2023-05-07T15:40:43.542Z,100.00
2023-05-07T15:43:12.408Z,100.00
2023-05-07T15:45:42.338Z,100.00
2023-05-07T15:48:11.213Z,100.00
2023-05-07T15:50:40.089Z,100.00
2023-05-07T15:53:26.096Z,100.00
2023-05-07T15:55:54.538Z,100.00
2023-05-07T15:58:22.716Z,100.00
2023-05-07T16:00:51.288Z,100.00
2023-05-07T16:03:20.003Z,100.00
2023-05-07T16:05:48.189Z,100.00
2023-05-07T16:08:16.418Z,100.00
2023-05-07T16:10:46.099Z,100.00
2023-05-07T16:13:14.314Z,100.00
2023-05-07T16:15:42.532Z,100.00
2023-05-07T16:18:10.831Z,100.00
2023-05-07T16:20:39.228Z,100.00
2023-05-07T16:23:07.378Z,100.00
2023-05-07T16:25:35.525Z,100.00
2023-05-07T16:28:05.218Z,100.00
2023-05-07T16:30:33.412Z,100.00
2023-05-07T16:33:01.593Z,100.00
2023-05-07T16:35:29.912Z,100.00
2023-05-07T16:37:58.107Z,100.00
2023-05-07T16:40:26.568Z,100.00
2023-05-07T16:42:55.604Z,100.00
2023-05-07T16:45:25.227Z,100.00
2023-05-07T16:47:53.400Z,100.00
2023-05-07T16:50:21.663Z,100.00
2023-05-07T16:52:50.225Z,100.00
2023-05-07T16:55:18.606Z,100.00
2023-05-07T16:57:46.771Z,100.00
2023-05-07T17:00:16.912Z,100.00
2023-05-07T17:02:47.168Z,100.00
2023-05-07T17:05:15.793Z,100.00
2023-05-07T17:07:44.138Z,100.00
2023-05-07T17:10:12.510Z,100.00
2023-05-07T17:12:41.103Z,100.00
2023-05-07T17:15:11.017Z,100.00
2023-05-07T17:17:39.455Z,100.00
2023-05-07T17:20:10.494Z,100.00
2023-05-07T17:22:38.734Z,100.00
2023-05-07T17:25:07.443Z,100.00
2023-05-07T17:27:35.732Z,100.00
2023-05-07T17:30:03.865Z,100.00
2023-05-07T17:32:34.941Z,100.00
2023-05-07T17:35:03.523Z,100.00
2023-05-07T17:37:33.214Z,100.00
2023-05-07T17:40:02.241Z,100.00
2023-05-07T17:42:32.129Z,100.00
2023-05-07T17:45:00.250Z,100.00
2023-05-07T17:47:28.439Z,100.00
2023-05-07T17:49:56.657Z,100.00
2023-05-07T17:56:36.854Z,100.00
2023-05-07T17:59:05.388Z,100.00
2023-05-07T18:01:34.347Z,100.00
2023-05-07T18:04:03.433Z,100.00
2023-05-07T18:06:32.298Z,100.00
2023-05-07T18:09:00.641Z,100.00
2023-05-07T18:11:32.704Z,100.00
2023-05-07T18:14:03.006Z,100.00
2023-05-07T18:16:31.481Z,100.00
2023-05-07T18:18:59.716Z,100.00
2023-05-07T18:21:28.553Z,100.00
2023-05-07T18:23:57.210Z,100.00
2023-05-07T18:26:26.156Z,100.00
2023-05-07T18:28:54.404Z,100.00
2023-05-07T18:31:24.640Z,100.00
2023-05-07T18:33:56.052Z,100.00
2023-05-07T18:36:27.069Z,100.00
2023-05-07T18:39:01.550Z,100.00
2023-05-07T18:41:29.851Z,100.00
2023-05-07T18:43:58.195Z,100.00
2023-05-07T18:46:29.739Z,100.00
2023-05-07T18:48:58.425Z,100.00
2023-05-07T18:51:28.785Z,100.00
2023-05-07T18:53:58.188Z,100.00
2023-05-07T18:56:26.415Z,100.00
2023-05-07T18:58:54.653Z,100.00
2023-05-07T19:01:23.251Z,100.00
2023-05-07T19:03:53.215Z,100.00
2023-05-07T19:06:22.375Z,100.00
2023-05-07T19:08:50.522Z,100.00
2023-05-07T19:11:18.821Z,100.00
2023-05-07T19:13:47.009Z,100.00
2023-05-07T19:16:15.394Z,100.00
2023-05-07T19:18:43.974Z,100.00
2023-05-07T19:21:14.595Z,100.00
2023-05-07T19:23:43.370Z,100.00
2023-05-07T19:26:13.920Z,100.00
2023-05-07T19:28:45.435Z,100.00
2023-05-07T19:31:20.929Z,100.00
2023-05-07T19:33:49.727Z,100.00
2023-05-07T19:36:20.040Z,100.00
2023-05-07T19:38:50.203Z,100.00
2023-05-07T19:41:18.351Z,100.00
2023-05-07T19:43:46.510Z,100.00
2023-05-07T19:46:16.720Z,100.00
2023-05-07T19:48:45.764Z,100.00
2023-05-07T19:51:14.826Z,100.00
2023-05-07T19:53:45.133Z,100.00
2023-05-07T19:56:13.794Z,100.00
2023-05-07T19:58:41.954Z,100.00
2023-05-07T20:01:10.328Z,100.00
2023-05-07T20:03:38.735Z,100.00
2023-05-07T20:06:07.031Z,100.00
2023-05-07T20:08:35.206Z,100.00
2023-05-07T20:11:05.760Z,100.00
2023-05-07T20:13:34.058Z,100.00
2023-05-07T20:16:04.511Z,100.00
2023-05-07T20:18:32.773Z,100.00
2023-05-07T20:21:05.668Z,100.00
2023-05-07T20:23:34.325Z,100.00
2023-05-07T20:26:02.648Z,100.00
2023-05-07T20:28:32.345Z,100.00
2023-05-07T20:31:00.529Z,100.00
2023-05-07T20:33:28.718Z,100.00
2023-05-07T20:35:59.184Z,100.00
2023-05-07T20:38:28.645Z,100.00
2023-05-07T20:40:56.905Z,100.00
2023-05-07T20:43:25.113Z,100.00
2023-05-07T20:46:02.526Z,100.00
2023-05-07T20:48:32.197Z,100.00
2023-05-07T20:51:01.294Z,100.00
2023-05-07T20:53:30.515Z,100.00
2023-05-07T20:55:59.039Z,100.00
2023-05-07T20:58:29.126Z,100.00
2023-05-07T21:00:58.370Z,100.00
2023-05-07T21:03:28.039Z,100.00
2023-05-07T21:05:57.922Z,100.00
2023-05-07T21:08:30.993Z,100.00
2023-05-07T21:10:59.354Z,100.00
2023-05-07T21:13:27.710Z,100.00
2023-05-07T21:15:56.075Z,100.00
2023-05-07T21:18:26.855Z,100.00
2023-05-07T21:20:57.399Z,100.00
2023-05-07T21:23:25.683Z,100.00
2023-05-07T21:25:53.986Z,100.00
2023-05-07T21:28:22.296Z,100.00
2023-05-07T21:30:50.689Z,100.00
2023-05-07T21:33:18.878Z,100.00
2023-05-07T21:35:47.140Z,100.00
2023-05-07T21:38:18.033Z,100.00
2023-05-07T21:40:46.524Z,100.00
2023-05-07T21:43:14.761Z,100.00
2023-05-07T21:45:43.151Z,100.00
2023-05-07T21:48:11.326Z,100.00
2023-05-07T21:50:39.508Z,100.00
2023-05-07T21:53:07.835Z,100.00
2023-05-07T21:55:37.514Z,100.00
2023-05-07T21:58:06.375Z,100.00
2023-05-07T22:00:34.909Z,100.00
2023-05-07T22:03:03.229Z,100.00
2023-05-07T22:05:32.253Z,100.00
2023-05-07T22:08:00.519Z,100.00
2023-05-07T22:10:28.762Z,100.00
2023-05-07T22:12:58.433Z,100.00
2023-05-07T22:15:26.658Z,100.00
2023-05-07T22:17:54.819Z,100.00
2023-05-07T22:20:23.051Z,100.00
2023-05-07T22:22:52.997Z,100.00
2023-05-07T22:25:21.981Z,100.00
2023-05-07T22:27:50.798Z,100.00
2023-05-07T22:30:20.495Z,100.00
2023-05-07T22:32:48.907Z,100.00
2023-05-07T22:35:17.128Z,100.00
2023-05-07T22:37:45.275Z,100.00
2023-05-07T22:40:13.895Z,100.00
2023-05-07T22:42:42.349Z,100.00
2023-05-07T22:45:11.653Z,100.00
2023-05-07T22:47:41.396Z,100.00
2023-05-07T22:50:10.552Z,100.00
2023-05-07T22:52:39.000Z,100.00
2023-05-07T22:55:08.329Z,100.00
2023-05-07T22:57:36.490Z,100.00
2023-05-07T23:00:05.195Z,100.00
2023-05-07T23:02:33.605Z,100.00
2023-05-07T23:05:03.376Z,100.00
2023-05-07T23:07:31.620Z,100.00
2023-05-07T23:09:59.790Z,100.00
2023-05-07T23:12:28.039Z,100.00
2023-05-07T23:14:56.238Z,100.00
2023-05-07T23:17:24.565Z,100.00
2023-05-07T23:19:52.829Z,100.00
2023-05-07T23:22:22.402Z,100.00
2023-05-07T23:24:50.574Z,100.00
2023-05-07T23:27:18.795Z,100.00
2023-05-07T23:29:47.569Z,100.00
2023-05-07T23:32:15.749Z,100.00
2023-05-07T23:34:43.908Z,100.00
2023-05-07T23:37:12.086Z,100.00
2023-05-07T23:39:41.618Z,100.00
2023-05-07T23:42:10.276Z,100.00
2023-05-07T23:44:38.565Z,100.00
2023-05-07T23:47:06.805Z,100.00
2023-05-07T23:49:34.956Z,100.00
2023-05-07T23:52:03.172Z,100.00
2023-05-07T23:54:31.401Z,100.00
2023-05-07T23:57:01.079Z,100.00
2023-05-07T23:59:29.632Z,100.00
